Time;durP1;ratioP1;P1;durP2;ratioP2;P2;SDS_P1;SDS_P2;PMS_P1;PMS_P2;Temp;Humidity;BMP_temperature;BMP_pressure;BME280_temperature;BME280_humidity;BME280_pressure;Samples;Min_cycle;Max_cycle;Signal;HPM_P1;HPM_P2
2021/12/08 00:02:17;;;;;;;8.60;2.33;;;-1.50;99.90;;;;;;5018850;28;20171;-78
2021/12/08 00:04:43;;;;;;;2.37;1.40;;;-3.40;99.90;;;;;;5019184;28;20568;-79
2021/12/08 00:07:09;;;;;;;4.67;1.60;;;-1.60;99.90;;;;;;5019159;28;20177;-79
2021/12/08 00:14:53;;;;;;;4.10;2.33;;;-3.50;99.90;;;;;;5019210;28;20451;-75
2021/12/08 00:17:19;;;;;;;2.13;1.83;;;-3.30;99.90;;;;;;5016823;28;20730;-83
2021/12/08 00:19:44;;;;;;;11.13;3.03;;;-3.30;99.90;;;;;;5019025;28;20607;-80
2021/12/08 00:22:10;;;;;;;9.03;2.60;;;-2.10;99.90;;;;;;5033906;28;20176;-82
2021/12/08 00:24:37;;;;;;;5.90;1.90;;;-3.20;99.90;;;;;;5019007;28;20185;-84
2021/12/08 00:27:05;;;;;;;5.73;1.83;;;-3.00;99.90;;;;;;5019147;28;20176;-83
2021/12/08 00:29:31;;;;;;;3.90;2.03;;;-3.00;99.90;;;;;;5018944;28;20488;-81
2021/12/08 00:31:58;;;;;;;12.37;3.00;;;-2.70;99.90;;;;;;5018810;28;20889;-79
2021/12/08 00:34:24;;;;;;;6.40;2.93;;;-2.70;99.90;;;;;;5017082;28;20187;-79
2021/12/08 00:36:55;;;;;;;14.00;2.53;;;-1.20;99.90;;;;;;5016648;28;20407;-75
2021/12/08 00:39:22;;;;;;;7.93;2.13;;;-2.80;99.90;;;;;;5015333;28;20412;-74
2021/12/08 00:41:48;;;;;;;3.93;1.77;;;-2.20;99.90;;;;;;5031398;28;21045;-73
2021/12/08 00:44:14;;;;;;;5.50;1.37;;;-2.90;99.90;;;;;;5019873;28;20401;-73
2021/12/08 00:46:40;;;;;;;8.20;1.73;;;-2.80;99.90;;;;;;5018990;28;20565;-79
2021/12/08 00:49:07;;;;;;;8.00;2.30;;;-2.80;99.90;;;;;;5021598;28;20862;-83
2021/12/08 00:51:33;;;;;;;7.43;2.83;;;-2.40;99.90;;;;;;5022801;28;20490;-85
2021/12/08 00:54:01;;;;;;;6.73;2.40;;;-2.20;99.90;;;;;;5023785;28;20177;-86
2021/12/08 00:56:27;;;;;;;10.73;1.70;;;-2.80;99.90;;;;;;5024096;28;20408;-85
2021/12/08 00:58:53;;;;;;;8.20;2.37;;;-2.90;99.90;;;;;;5024166;28;20402;-83
2021/12/08 01:01:20;;;;;;;9.03;2.93;;;-1.80;99.90;;;;;;5021844;28;20203;-85
2021/12/08 01:03:47;;;;;;;8.43;2.03;;;-2.90;99.90;;;;;;5038793;28;20181;-76
2021/12/08 01:06:13;;;;;;;12.40;2.40;;;-2.90;99.90;;;;;;5022268;28;20406;-84
2021/12/08 01:08:40;;;;;;;7.97;1.63;;;-3.00;99.90;;;;;;5022225;28;20410;-75
2021/12/08 01:11:11;;;;;;;6.43;2.07;;;-2.30;99.90;;;;;;5020726;28;20444;-74
2021/12/08 01:13:37;;;;;;;13.50;2.97;;;-2.70;99.90;;;;;;5020152;28;20451;-76
2021/12/08 01:16:03;;;;;;;5.83;2.07;;;-1.60;99.90;;;;;;5019728;28;20819;-76
2021/12/08 01:18:30;;;;;;;4.07;1.90;;;-2.70;99.90;;;;;;5020675;28;20172;-82
2021/12/08 01:20:58;;;;;;;4.30;1.67;;;-1.00;99.90;;;;;;5019515;28;20421;-74
2021/12/08 01:23:25;;;;;;;3.73;1.60;;;-2.20;99.90;;;;;;5020115;28;20445;-79
2021/12/08 01:25:51;;;;;;;4.13;1.83;;;-2.30;99.90;;;;;;5019793;28;20488;-73
2021/12/08 01:28:20;;;;;;;8.10;1.40;;;-4.00;99.90;;;;;;5019432;28;20409;-78
2021/12/08 01:30:48;;;;;;;4.23;1.50;;;-2.10;99.90;;;;;;5018046;28;20413;-74
2021/12/08 01:33:15;;;;;;;4.33;1.60;;;-2.70;99.90;;;;;;5019605;28;20834;-74
2021/12/08 01:35:41;;;;;;;4.90;1.50;;;-2.50;99.90;;;;;;5019445;28;20910;-76
2021/12/08 01:38:07;;;;;;;5.37;1.47;;;-3.90;99.90;;;;;;5019442;28;20704;-73
2021/12/08 01:40:32;;;;;;;4.07;1.40;;;-3.10;99.90;;;;;;5034930;28;20406;-73
2021/12/08 01:43:01;;;;;;;8.37;2.07;;;-3.80;99.90;;;;;;5019221;28;20179;-73
2021/12/08 01:48:16;;;;;;;6.00;2.40;;;-2.70;99.90;;;;;;5019031;28;20725;-73
2021/12/08 01:50:47;;;;;;;9.97;4.00;;;-4.50;99.90;;;;;;5018887;28;20426;-73
2021/12/08 01:53:13;;;;;;;11.77;3.27;;;-4.20;99.90;;;;;;5033859;28;20405;-75
2021/12/08 01:55:40;;;;;;;7.50;2.80;;;-4.90;99.90;;;;;;5018829;28;20391;-73
2021/12/08 01:58:08;;;;;;;11.23;3.33;;;-2.70;99.90;;;;;;5018673;28;20189;-72
2021/12/08 02:01:03;;;;;;;8.20;2.77;;;-2.90;99.90;;;;;;5018625;28;20393;-72
2021/12/08 02:03:30;;;;;;;5.87;2.90;;;-3.00;99.90;;;;;;5018897;28;20414;-72
2021/12/08 02:05:56;;;;;;;6.43;2.87;;;-3.60;99.90;;;;;;5018725;28;20523;-71
2021/12/08 02:08:24;;;;;;;4.13;1.70;;;-3.30;99.90;;;;;;5018709;28;20747;-73
2021/12/08 02:10:50;;;;;;;7.63;3.30;;;-2.80;99.90;;;;;;5018531;28;20446;-71
2021/12/08 02:13:16;;;;;;;8.43;2.10;;;-2.10;99.90;;;;;;5018199;28;20442;-72
2021/12/08 02:15:43;;;;;;;4.03;1.87;;;-3.70;99.90;;;;;;5018589;28;20408;-72
2021/12/08 02:18:12;;;;;;;6.60;1.80;;;-2.70;99.90;;;;;;5018441;28;20403;-72
2021/12/08 02:20:38;;;;;;;5.80;1.60;;;-3.50;99.90;;;;;;5018306;28;20422;-72
2021/12/08 02:23:05;;;;;;;3.90;1.00;;;-3.50;99.90;;;;;;5018597;28;20438;-73
2021/12/08 02:25:31;;;;;;;7.20;1.73;;;-2.90;99.90;;;;;;5018352;28;20414;-72
2021/12/08 02:27:59;;;;;;;1.83;1.20;;;-2.60;99.90;;;;;;5018257;28;20405;-73
2021/12/08 02:30:34;;;;;;;22.30;2.50;;;-3.20;99.90;;;;;;5018684;28;20901;-76
2021/12/08 02:49:15;;;;;;;5.10;1.40;;;-4.30;99.90;;;;;;5018097;28;20433;-72
2021/12/08 02:51:42;;;;;;;3.00;1.00;;;-5.00;99.90;;;;;;5018124;28;20192;-72
2021/12/08 02:54:08;;;;;;;4.43;1.57;;;-4.50;99.90;;;;;;5018599;28;20392;-79
2021/12/08 02:56:34;;;;;;;2.90;1.10;;;-3.90;99.90;;;;;;5019453;28;20410;-80
2021/12/08 02:59:00;;;;;;;2.00;1.23;;;-4.30;99.90;;;;;;5019717;28;20169;-79
2021/12/08 03:01:27;;;;;;;5.77;1.87;;;-3.70;99.90;;;;;;5018713;28;20182;-72
2021/12/08 03:03:54;;;;;;;5.43;1.50;;;-2.70;99.90;;;;;;5020754;28;20405;-83
2021/12/08 03:06:22;;;;;;;2.77;1.33;;;-3.50;99.90;;;;;;5019435;28;20406;-80
2021/12/08 03:08:49;;;;;;;5.30;1.97;;;-2.80;99.90;;;;;;5019319;28;20408;-74
2021/12/08 03:11:15;;;;;;;9.17;2.90;;;-3.90;99.90;;;;;;5018507;28;20445;-73
2021/12/08 03:13:44;;;;;;;3.23;2.20;;;-4.60;99.90;;;;;;5018682;28;20391;-82
2021/12/08 03:16:12;;;;;;;5.03;1.87;;;-4.30;99.90;;;;;;5019342;28;20484;-80
2021/12/08 03:18:41;;;;;;;9.97;2.13;;;-5.30;99.90;;;;;;5019355;28;20454;-76
2021/12/08 03:21:09;;;;;;;7.50;2.53;;;-4.30;99.90;;;;;;5019306;28;20412;-77
2021/12/08 03:23:57;;;;;;;5.90;1.57;;;-3.00;99.90;;;;;;5019173;28;20405;-77
2021/12/08 03:26:29;;;;;;;5.43;2.60;;;-4.50;99.90;;;;;;5018993;28;20837;-82
2021/12/08 03:29:03;;;;;;;8.30;2.37;;;-4.20;99.90;;;;;;5018959;28;20409;-75
2021/12/08 03:31:34;;;;;;;11.13;2.30;;;-4.00;99.90;;;;;;5018276;28;20445;-73
2021/12/08 03:34:02;;;;;;;4.30;2.07;;;-3.70;99.90;;;;;;5018301;28;20698;-79
2021/12/08 03:36:27;;;;;;;8.30;2.37;;;-2.90;99.90;;;;;;5018194;28;20463;-75
2021/12/08 03:38:53;;;;;;;9.27;2.00;;;-4.20;99.90;;;;;;5017493;28;20407;-73
2021/12/08 03:41:19;;;;;;;4.03;1.73;;;-4.70;99.90;;;;;;5017812;28;20168;-74
2021/12/08 03:43:45;;;;;;;5.57;2.30;;;-4.50;99.90;;;;;;5017953;28;20171;-75
2021/12/08 03:46:13;;;;;;;10.90;2.30;;;-4.70;99.90;;;;;;5018028;28;20254;-74
2021/12/08 03:48:47;;;;;;;4.30;1.60;;;-4.70;99.90;;;;;;5018453;28;20186;-76
2021/12/08 03:51:14;;;;;;;3.93;1.57;;;-3.80;99.90;;;;;;5018191;28;20463;-78
2021/12/08 03:53:42;;;;;;;2.10;1.43;;;-3.50;99.90;;;;;;5016420;28;20441;-74
2021/12/08 03:56:08;;;;;;;5.03;2.13;;;-3.00;99.90;;;;;;5017651;28;20772;-80
2021/12/08 03:58:35;;;;;;;5.57;2.43;;;-4.10;99.90;;;;;;5017918;28;20404;-75
2021/12/08 04:01:02;;;;;;;10.43;2.57;;;-4.10;99.90;;;;;;5017580;28;20689;-74
2021/12/08 04:03:31;;;;;;;4.13;1.40;;;-3.40;99.90;;;;;;5017716;28;20704;-75
2021/12/08 04:06:01;;;;;;;7.00;1.70;;;-5.00;99.90;;;;;;5017293;28;20399;-77
2021/12/08 04:08:41;;;;;;;13.87;2.80;;;-5.60;99.90;;;;;;5016651;28;20544;-75
2021/12/08 04:11:10;;;;;;;6.53;1.90;;;-5.10;99.90;;;;;;5016175;28;20420;-78
2021/12/08 04:13:35;;;;;;;11.57;3.00;;;-4.40;99.90;;;;;;5017682;28;20408;-74
2021/12/08 04:16:01;;;;;;;9.47;1.60;;;-4.30;99.90;;;;;;5016422;28;20411;-77
2021/12/08 04:18:27;;;;;;;6.40;1.90;;;-4.20;99.90;;;;;;5017172;28;20173;-74
2021/12/08 04:20:57;;;;;;;5.57;2.87;;;-4.90;99.90;;;;;;5017746;28;20583;-72
2021/12/08 04:23:26;;;;;;;4.20;1.50;;;-4.30;99.90;;;;;;5033409;28;20180;-74
2021/12/08 04:25:55;;;;;;;6.03;1.47;;;-4.40;99.90;;;;;;5033721;28;20429;-72
2021/12/08 04:28:26;;;;;;;8.10;2.07;;;-4.10;99.90;;;;;;5017875;28;20436;-83
2021/12/08 04:30:57;;;;;;;5.90;1.63;;;-4.10;99.90;;;;;;5018412;28;20428;-74
2021/12/08 04:33:24;;;;;;;5.47;2.77;;;-3.90;99.90;;;;;;5018030;28;20412;-79
2021/12/08 04:35:53;;;;;;;4.77;1.53;;;-4.10;99.90;;;;;;5017895;28;20423;-80
2021/12/08 04:38:28;;;;;;;11.17;1.77;;;-4.70;99.90;;;;;;5018037;28;20411;-75
2021/12/08 04:43:30;;;;;;;7.40;1.43;;;-4.80;99.90;;;;;;5018217;28;20396;-76
2021/12/08 04:46:24;;;;;;;5.57;1.70;;;-5.20;99.90;;;;;;5018235;28;20402;-77
2021/12/08 04:49:11;;;;;;;2.77;1.37;;;-5.80;99.90;;;;;;5017160;28;20801;-75
2021/12/08 05:10:05;;;;;;;5.93;1.80;;;-4.20;99.90;;;;;;5018268;28;20892;-82
2021/12/08 05:12:35;;;;;;;2.63;1.63;;;-5.00;99.90;;;;;;5016920;28;20967;-84
2021/12/08 05:15:22;;;;;;;4.83;1.43;;;-4.10;99.90;;;;;;5018539;28;20395;-85
2021/12/08 05:17:54;;;;;;;5.47;2.20;;;-4.60;99.90;;;;;;5033359;28;20410;-83
2021/12/08 05:20:26;;;;;;;7.20;1.10;;;-3.00;99.90;;;;;;5017393;28;20411;-78
2021/12/08 05:22:59;;;;;;;4.40;1.27;;;-3.50;99.90;;;;;;5017190;28;20414;-77
2021/12/08 05:25:28;;;;;;;6.23;1.47;;;-4.20;99.90;;;;;;5017616;28;20407;-73
2021/12/08 05:27:57;;;;;;;5.70;1.40;;;-4.40;99.90;;;;;;5017424;28;20402;-75
2021/12/08 05:30:42;;;;;;;5.50;1.67;;;-3.70;99.90;;;;;;5019329;28;20411;-80
2021/12/08 05:33:11;;;;;;;4.63;0.97;;;-5.00;99.90;;;;;;5020849;28;20442;-72
2021/12/08 05:35:39;;;;;;;5.00;1.17;;;-3.90;99.90;;;;;;5019861;28;20506;-84
2021/12/08 05:38:05;;;;;;;5.37;1.57;;;-5.10;99.90;;;;;;5020211;28;20462;-72
2021/12/08 05:40:42;;;;;;;5.23;1.40;;;-4.80;99.90;;;;;;5020058;28;20449;-84
2021/12/08 05:43:09;;;;;;;3.70;1.33;;;-4.40;99.90;;;;;;5020533;28;20839;-85
2021/12/08 05:45:36;;;;;;;8.90;3.00;;;-3.80;99.90;;;;;;5022441;28;20405;-81
2021/12/08 05:48:03;;;;;;;7.37;1.70;;;-3.60;99.90;;;;;;5020254;28;20476;-84
2021/12/08 05:51:12;;;;;;;3.70;1.53;;;-3.90;99.90;;;;;;5020940;28;20418;-84
2021/12/08 05:53:42;;;;;;;4.63;1.67;;;-4.00;99.90;;;;;;5022220;28;20427;-83
2021/12/08 05:56:08;;;;;;;10.83;3.17;;;-3.70;99.90;;;;;;5021790;28;20700;-75
2021/12/08 05:58:35;;;;;;;3.10;1.90;;;-3.30;99.90;;;;;;5021520;28;20394;-78
2021/12/08 06:01:43;;;;;;;6.20;1.67;;;-3.50;99.90;;;;;;5019521;28;20438;-77
2021/12/08 06:04:11;;;;;;;4.03;1.60;;;-4.10;99.90;;;;;;5020901;28;20466;-78
2021/12/08 06:06:40;;;;;;;7.73;3.33;;;-4.20;99.90;;;;;;5021490;28;20407;-83
2021/12/08 06:09:09;;;;;;;6.20;2.00;;;-4.20;99.90;;;;;;5021083;28;20399;-75
2021/12/08 06:11:35;;;;;;;4.60;1.30;;;-4.30;99.90;;;;;;5020545;28;20713;-85
2021/12/08 06:14:01;;;;;;;6.13;1.57;;;-3.50;99.90;;;;;;5021849;28;20412;-82
2021/12/08 06:16:29;;;;;;;6.23;1.10;;;-3.40;99.90;;;;;;5022350;28;20858;-86
2021/12/08 06:18:55;;;;;;;7.73;1.80;;;-3.30;99.90;;;;;;5019787;28;20400;-73
2021/12/08 06:21:25;;;;;;;4.97;1.30;;;-3.50;99.90;;;;;;5019699;28;20862;-84
2021/12/08 06:23:52;;;;;;;3.27;1.33;;;-2.00;99.90;;;;;;5021780;28;20414;-85
2021/12/08 06:26:21;;;;;;;3.53;1.50;;;-3.40;99.90;;;;;;5019720;28;20443;-74
2021/12/08 06:28:47;;;;;;;3.77;2.40;;;-3.80;99.90;;;;;;5021334;28;20405;-82
2021/12/08 06:31:16;;;;;;;6.37;1.33;;;-2.20;99.90;;;;;;5022154;28;20403;-84
2021/12/08 06:33:42;;;;;;;8.40;2.13;;;-4.20;99.90;;;;;;5019812;28;20388;-78
2021/12/08 06:36:23;;;;;;;4.67;1.93;;;-2.60;99.90;;;;;;5018516;28;20428;-75
2021/12/08 06:38:50;;;;;;;12.93;1.80;;;-3.20;99.90;;;;;;5019599;28;20475;-73
2021/12/08 06:41:37;;;;;;;6.10;1.20;;;-3.50;99.90;;;;;;5019167;28;20412;-77
2021/12/08 06:44:16;;;;;;;7.93;1.50;;;-3.50;99.90;;;;;;5021773;28;20409;-83
2021/12/08 06:46:44;;;;;;;4.60;1.40;;;-3.70;99.90;;;;;;5022648;28;20461;-86
2021/12/08 06:49:12;;;;;;;2.63;1.60;;;-3.80;99.90;;;;;;5021630;28;20870;-84
2021/12/08 06:51:51;;;;;;;3.13;1.60;;;-4.00;99.90;;;;;;5021304;28;20452;-81
2021/12/08 06:54:27;;;;;;;4.27;1.37;;;-4.00;99.90;;;;;;5020588;28;20702;-83
2021/12/08 06:57:03;;;;;;;4.00;1.60;;;-4.00;99.90;;;;;;5024056;28;20395;-79
2021/12/08 06:59:34;;;;;;;5.30;1.63;;;-4.00;99.90;;;;;;5027980;28;20418;-83
2021/12/08 07:02:21;;;;;;;5.00;1.33;;;-2.90;99.90;;;;;;5025670;28;20418;-79
2021/12/08 07:04:57;;;;;;;4.83;1.27;;;-4.20;99.90;;;;;;5020295;28;20405;-79
2021/12/08 07:07:27;;;;;;;3.90;1.53;;;-3.60;99.90;;;;;;5021455;28;20433;-89
2021/12/08 07:09:58;;;;;;;3.13;1.57;;;-1.90;99.90;;;;;;5020340;28;20428;-84
2021/12/08 07:12:37;;;;;;;4.97;1.67;;;-3.20;99.90;;;;;;5020915;28;20446;-84
2021/12/08 07:15:26;;;;;;;4.20;1.60;;;-4.30;99.90;;;;;;5020883;28;20424;-83
2021/12/08 07:17:56;;;;;;;2.03;1.27;;;-4.20;99.90;;;;;;5019730;28;20452;-80
2021/12/08 07:20:42;;;;;;;3.77;1.50;;;-4.30;99.90;;;;;;5020153;28;20408;-77
2021/12/08 07:23:37;;;;;;;3.33;1.60;;;-4.20;99.90;;;;;;5028048;28;20503;-81
2021/12/08 07:26:13;;;;;;;4.30;1.67;;;-3.20;99.90;;;;;;5024171;28;20414;-81
2021/12/08 07:28:40;;;;;;;3.47;1.63;;;-4.80;99.90;;;;;;5020188;28;20436;-78
2021/12/08 07:31:14;;;;;;;8.17;3.83;;;-4.70;99.90;;;;;;5011699;28;20418;-75
2021/12/08 07:33:40;;;;;;;7.30;2.10;;;-4.60;99.90;;;;;;5035770;28;20830;-72
2021/12/08 07:36:11;;;;;;;7.20;1.80;;;-2.90;99.90;;;;;;5036790;28;20740;-73
2021/12/08 07:38:38;;;;;;;2.93;1.37;;;-3.70;99.90;;;;;;5037747;28;20407;-70
2021/12/08 07:41:09;;;;;;;2.07;1.57;;;-3.50;99.90;;;;;;5029849;28;20423;-78
2021/12/08 07:43:39;;;;;;;11.60;1.50;;;-2.30;99.90;;;;;;5033909;28;20497;-82
2021/12/08 07:46:12;;;;;;;4.60;1.10;;;-3.60;99.90;;;;;;5019625;28;20417;-85
2021/12/08 07:48:43;;;;;;;3.77;1.07;;;-3.20;99.90;;;;;;5025776;28;20440;-76
2021/12/08 07:51:28;;;;;;;5.27;1.40;;;-3.20;99.90;;;;;;5035895;28;20495;-82
2021/12/08 07:53:54;;;;;;;3.97;1.33;;;-3.20;99.90;;;;;;5035875;28;20414;-83
2021/12/08 07:56:22;;;;;;;4.97;2.03;;;-3.40;99.90;;;;;;5036267;28;20402;-81
2021/12/08 07:58:52;;;;;;;3.13;1.47;;;-3.10;99.90;;;;;;5037208;28;20433;-81
2021/12/08 08:01:23;;;;;;;6.90;1.60;;;-3.80;99.90;;;;;;5037235;28;20418;-82
2021/12/08 08:03:50;;;;;;;2.77;1.17;;;-4.20;99.90;;;;;;5037893;28;20404;-80
2021/12/08 08:06:25;;;;;;;5.50;1.83;;;-3.50;99.90;;;;;;5038617;28;20405;-88
2021/12/08 08:08:51;;;;;;;2.00;1.17;;;-4.30;99.90;;;;;;5037465;28;20842;-88
2021/12/08 08:11:30;;;;;;;9.43;3.60;;;-3.80;99.90;;;;;;5030117;28;20444;-87
2021/12/08 08:13:59;;;;;;;4.03;1.40;;;-4.10;99.90;;;;;;5027856;28;20178;-81
2021/12/08 08:16:32;;;;;;;4.20;1.37;;;-4.30;99.90;;;;;;5034755;28;20461;-80
2021/12/08 08:19:08;;;;;;;2.83;1.17;;;-4.20;99.90;;;;;;5030193;28;20506;-90
2021/12/08 08:21:40;;;;;;;7.30;1.87;;;-3.60;99.90;;;;;;5035349;28;20422;-94
2021/12/08 08:24:07;;;;;;;3.23;1.53;;;-4.40;99.90;;;;;;5034325;28;20490;-83
2021/12/08 08:26:35;;;;;;;3.80;1.30;;;-4.40;99.90;;;;;;5035514;28;20420;-87
2021/12/08 08:29:03;;;;;;;5.80;1.40;;;-4.50;99.90;;;;;;5034804;28;20421;-73
2021/12/08 08:31:41;;;;;;;2.90;1.10;;;-3.50;99.90;;;;;;5028060;28;20505;-75
2021/12/08 08:34:10;;;;;;;6.63;2.33;;;-2.50;99.90;;;;;;5025418;28;20393;-78
2021/12/08 08:36:41;;;;;;;5.20;2.10;;;-3.90;99.90;;;;;;5034256;28;20406;-74
2021/12/08 08:39:17;;;;;;;2.00;1.50;;;-3.50;99.90;;;;;;5034914;28;20449;-81
2021/12/08 08:42:01;;;;;;;7.63;2.50;;;-3.20;99.90;;;;;;5023068;28;20440;-87
2021/12/08 08:44:32;;;;;;;3.80;2.20;;;-3.40;99.90;;;;;;5025433;28;20443;-81
2021/12/08 08:47:01;;;;;;;5.73;3.93;;;-2.00;99.90;;;;;;5034174;28;20419;-76
2021/12/08 08:49:31;;;;;;;3.93;1.83;;;-3.40;99.90;;;;;;5034879;28;20749;-71
2021/12/08 08:52:05;;;;;;;5.47;1.53;;;-3.10;99.90;;;;;;5032883;28;20494;-80
2021/12/08 08:54:38;;;;;;;3.53;1.30;;;-4.30;99.90;;;;;;5035183;28;20716;-76
2021/12/08 08:57:08;;;;;;;4.50;2.00;;;-4.30;99.90;;;;;;5034805;28;20476;-72
2021/12/08 08:59:43;;;;;;;6.33;1.60;;;-4.00;99.90;;;;;;5033791;28;20472;-71
2021/12/08 09:02:13;;;;;;;3.33;1.50;;;-4.20;99.90;;;;;;5034351;28;20431;-75
2021/12/08 09:04:48;;;;;;;3.83;1.50;;;-4.60;99.90;;;;;;5037464;28;20402;-86
2021/12/08 09:07:22;;;;;;;2.00;1.27;;;-4.80;99.90;;;;;;5038766;28;20490;-78
2021/12/08 09:09:49;;;;;;;9.03;2.37;;;-4.30;99.90;;;;;;5037334;28;20411;-72
2021/12/08 09:12:33;;;;;;;3.17;1.13;;;-3.20;99.90;;;;;;5038305;28;20599;-76
2021/12/08 09:15:10;;;;;;;1.43;0.90;;;-4.90;99.90;;;;;;5030535;28;20493;-73
2021/12/08 09:17:46;;;;;;;13.23;1.83;;;-5.10;99.90;;;;;;5027182;28;20501;-71
2021/12/08 09:20:29;;;;;;;4.30;1.77;;;-5.40;99.90;;;;;;5033011;28;20432;-82
2021/12/08 09:23:10;;;;;;;6.13;1.87;;;-4.80;99.90;;;;;;5026972;28;20426;-71
2021/12/08 09:25:47;;;;;;;1.13;0.97;;;-5.20;99.90;;;;;;5038639;28;20437;-77
2021/12/08 09:28:18;;;;;;;3.17;1.30;;;-5.50;99.90;;;;;;5037515;28;20922;-78
2021/12/08 09:30:48;;;;;;;8.67;2.83;;;-3.30;99.90;;;;;;5036658;28;20435;-75
2021/12/08 09:33:19;;;;;;;12.93;2.60;;;-5.70;99.90;;;;;;5033842;28;20448;-82
2021/12/08 09:36:13;;;;;;;8.93;1.70;;;-5.20;99.90;;;;;;5038610;28;20455;-78
2021/12/08 09:38:52;;;;;;;9.43;1.30;;;-5.40;99.90;;;;;;5040538;28;20847;-88
2021/12/08 09:41:27;;;;;;;2.43;1.47;;;-4.50;99.90;;;;;;5020559;28;20415;-79
2021/12/08 09:44:05;;;;;;;7.80;1.47;;;-4.30;99.90;;;;;;5021126;28;20684;-86
2021/12/08 09:46:37;;;;;;;3.80;2.03;;;-4.00;99.90;;;;;;5019037;28;20417;-75
2021/12/08 09:49:05;;;;;;;3.50;1.23;;;-4.00;99.90;;;;;;5023139;28;20434;-73
2021/12/08 09:51:32;;;;;;;3.53;1.40;;;-4.30;99.90;;;;;;5037060;28;20535;-83
2021/12/08 09:53:58;;;;;;;1.80;1.13;;;-4.10;99.90;;;;;;5036812;28;20510;-74
2021/12/08 09:56:26;;;;;;;3.00;1.50;;;-2.90;99.90;;;;;;5028610;28;20451;-76
2021/12/08 09:58:53;;;;;;;5.13;1.60;;;-3.60;99.90;;;;;;5022224;28;20408;-71
2021/12/08 10:01:24;;;;;;;2.93;1.07;;;-3.50;99.90;;;;;;5035887;28;20425;-72
2021/12/08 10:03:53;;;;;;;5.80;1.50;;;-3.30;99.90;;;;;;5036599;28;20413;-72
2021/12/08 10:06:20;;;;;;;4.03;1.83;;;-3.80;99.90;;;;;;5037547;28;20766;-80
2021/12/08 10:08:48;;;;;;;9.70;1.50;;;-4.00;99.90;;;;;;5036376;28;20412;-81
2021/12/08 10:11:15;;;;;;;4.30;1.13;;;-3.80;99.90;;;;;;5019061;28;20422;-72
2021/12/08 10:13:45;;;;;;;2.93;1.20;;;-3.30;99.90;;;;;;5029019;28;20419;-71
2021/12/08 10:16:12;;;;;;;2.13;1.20;;;-3.70;99.90;;;;;;5037267;28;20458;-74
2021/12/08 10:18:38;;;;;;;3.57;0.90;;;-3.80;99.90;;;;;;5037820;28;20400;-77
2021/12/08 10:21:05;;;;;;;8.80;1.73;;;-3.90;99.90;;;;;;5036847;28;20426;-73
2021/12/08 10:24:04;;;;;;;1.70;1.27;;;-3.60;99.90;;;;;;5037653;28;20217;-72
2021/12/08 10:26:33;;;;;;;4.70;1.43;;;-3.30;99.90;;;;;;5034608;28;20417;-71
2021/12/08 10:29:03;;;;;;;5.40;1.30;;;-3.50;99.90;;;;;;5036359;28;20461;-71
2021/12/08 10:31:50;;;;;;;5.10;1.40;;;-2.50;99.90;;;;;;5035608;28;20542;-72
2021/12/08 10:37:09;;;;;;;3.20;1.20;;;-3.30;99.90;;;;;;5037312;28;20445;-73
2021/12/08 10:39:52;;;;;;;5.10;0.97;;;-3.30;99.90;;;;;;5033276;28;20411;-71
2021/12/08 10:42:31;;;;;;;3.73;1.20;;;-4.50;99.90;;;;;;5032717;28;20744;-73
2021/12/08 10:45:15;;;;;;;3.70;0.83;;;-4.40;99.90;;;;;;5037121;28;20398;-73
2021/12/08 10:47:48;;;;;;;3.40;1.33;;;-4.80;99.90;;;;;;5036396;28;20409;-72
2021/12/08 10:56:24;;;;;;;7.47;1.80;;;-5.00;99.90;;;;;;5037180;28;20417;-80
2021/12/08 10:58:57;;;;;;;9.43;3.03;;;-4.90;99.90;;;;;;5022233;28;20410;-86
2021/12/08 11:01:25;;;;;;;5.73;1.67;;;-4.90;99.90;;;;;;5029211;28;20417;-81
2021/12/08 11:04:01;;;;;;;6.60;1.60;;;-4.60;99.90;;;;;;5032848;28;20816;-84
2021/12/08 11:06:33;;;;;;;4.50;1.20;;;-5.30;99.90;;;;;;5019753;28;20410;-80
2021/12/08 11:09:00;;;;;;;5.90;1.60;;;-5.30;99.90;;;;;;5043843;28;20432;-75
2021/12/08 11:11:32;;;;;;;10.73;1.80;;;-2.70;99.90;;;;;;5030728;28;20533;-71
2021/12/08 11:14:01;;;;;;;7.93;3.23;;;-4.70;99.90;;;;;;5035062;28;21274;-74
2021/12/08 11:16:31;;;;;;;4.63;1.60;;;-5.30;99.90;;;;;;5036002;28;20191;-72
2021/12/08 11:19:10;;;;;;;6.40;1.70;;;-5.10;99.90;;;;;;5031924;28;20386;-78
2021/12/08 11:21:40;;;;;;;7.97;2.33;;;-6.20;99.90;;;;;;5028271;28;20505;-79
2021/12/08 11:24:15;;;;;;;1.07;1.07;;;-5.40;99.90;;;;;;5035344;28;20164;-76
2021/12/08 11:26:48;;;;;;;1.93;1.40;;;-5.80;99.90;;;;;;5036865;28;20498;-82
2021/12/08 11:29:21;;;;;;;3.60;1.50;;;-6.20;99.90;;;;;;5037982;28;20429;-74
2021/12/08 11:32:04;;;;;;;3.47;0.90;;;-4.80;99.90;;;;;;5036237;28;20464;-77
2021/12/08 11:34:34;;;;;;;2.53;1.30;;;-3.80;99.90;;;;;;5036090;28;20431;-75
2021/12/08 11:37:05;;;;;;;3.93;1.37;;;-3.70;99.90;;;;;;5021852;28;20409;-76
2021/12/08 11:39:34;;;;;;;5.30;1.50;;;-3.70;99.90;;;;;;5025361;28;20413;-77
2021/12/08 11:42:13;;;;;;;3.97;1.43;;;-3.40;99.90;;;;;;5021632;28;20468;-83
2021/12/08 11:44:42;;;;;;;5.17;2.23;;;-3.60;99.90;;;;;;5035820;28;20428;-76
2021/12/08 11:47:15;;;;;;;5.70;2.30;;;-3.30;99.90;;;;;;5018125;28;20875;-74
2021/12/08 11:49:50;;;;;;;6.47;2.27;;;-3.50;99.90;;;;;;5030689;28;20436;-76
2021/12/08 11:52:20;;;;;;;8.57;2.00;;;-3.30;99.90;;;;;;5032284;28;20466;-78
2021/12/08 11:55:00;;;;;;;5.20;1.73;;;-3.00;99.90;;;;;;5026329;28;20464;-74
2021/12/08 11:57:39;;;;;;;5.60;5.07;;;-3.40;99.90;;;;;;5018205;28;21281;-74
2021/12/08 12:00:06;;;;;;;4.77;1.83;;;-3.20;99.90;;;;;;5035239;28;20400;-72
2021/12/08 12:02:40;;;;;;;11.20;1.73;;;-4.00;99.90;;;;;;5035318;28;20795;-72
2021/12/08 12:05:10;;;;;;;3.93;1.90;;;-3.90;99.90;;;;;;5026975;28;20426;-72
2021/12/08 12:07:38;;;;;;;2.93;1.63;;;-3.30;99.90;;;;;;5032904;28;20439;-75
2021/12/08 12:10:09;;;;;;;11.40;3.47;;;-2.80;99.90;;;;;;5034305;28;20419;-75
2021/12/08 12:12:37;;;;;;;5.47;1.80;;;-3.00;99.90;;;;;;5035347;28;20892;-78
2021/12/08 12:15:17;;;;;;;7.60;2.50;;;-2.80;99.90;;;;;;5034557;28;20454;-79
2021/12/08 12:17:44;;;;;;;7.30;2.47;;;-2.90;99.90;;;;;;5033626;28;20778;-78
2021/12/08 12:20:17;;;;;;;5.20;1.50;;;-3.40;99.90;;;;;;5034597;28;20455;-78
2021/12/08 12:23:23;;;;;;;4.40;1.90;;;-3.30;99.90;;;;;;5033681;28;20471;-78
2021/12/08 12:26:10;;;;;;;2.63;1.40;;;-3.70;99.90;;;;;;5034972;28;20834;-75
2021/12/08 12:28:45;;;;;;;4.67;1.67;;;-3.50;99.90;;;;;;5033803;28;20423;-77
2021/12/08 12:31:51;;;;;;;3.23;1.30;;;-2.80;99.90;;;;;;5035158;28;20402;-77
2021/12/08 12:34:27;;;;;;;4.43;2.10;;;-2.90;99.90;;;;;;5034673;28;20192;-77
2021/12/08 12:36:55;;;;;;;7.03;2.27;;;-5.50;99.90;;;;;;5033207;28;20171;-77
2021/12/08 12:39:24;;;;;;;4.23;1.57;;;-5.20;99.90;;;;;;5035478;28;20207;-75
2021/12/08 12:42:10;;;;;;;4.30;1.63;;;-4.60;99.90;;;;;;5034193;28;20417;-77
2021/12/08 12:44:39;;;;;;;3.07;1.50;;;-4.80;99.90;;;;;;5034981;28;20175;-73
2021/12/08 12:47:23;;;;;;;1.60;1.50;;;-3.90;99.90;;;;;;5032693;28;20757;-78
2021/12/08 12:50:00;;;;;;;3.63;1.60;;;-4.70;99.90;;;;;;5030895;28;20445;-73
2021/12/08 12:52:52;;;;;;;2.67;1.70;;;-3.80;99.90;;;;;;5033694;28;20458;-70
2021/12/08 12:55:26;;;;;;;3.77;2.40;;;-4.00;99.90;;;;;;5034698;28;20229;-76
2021/12/08 12:58:04;;;;;;;4.50;1.03;;;-3.80;99.90;;;;;;5035197;28;20319;-74
2021/12/08 13:00:36;;;;;;;3.20;1.43;;;-3.20;99.90;;;;;;5035213;28;20176;-77
2021/12/08 13:03:03;;;;;;;1.73;1.10;;;-4.90;99.90;;;;;;5034808;28;20475;-75
2021/12/08 13:05:53;;;;;;;1.70;1.40;;;-5.20;99.90;;;;;;5033177;28;20504;-73
2021/12/08 13:08:42;;;;;;;7.00;2.97;;;-5.00;99.90;;;;;;5035229;28;20184;-72
2021/12/08 13:11:27;;;;;;;5.27;1.37;;;-4.00;99.90;;;;;;5034726;28;20401;-71
2021/12/08 13:13:57;;;;;;;4.30;2.33;;;-3.50;99.90;;;;;;5034164;28;20709;-70
2021/12/08 13:16:31;;;;;;;4.93;2.23;;;-3.30;99.90;;;;;;5034379;28;20402;-73
2021/12/08 13:19:00;;;;;;;5.20;1.60;;;-3.20;99.90;;;;;;5027189;28;20187;-71
2021/12/08 13:21:47;;;;;;;3.67;1.43;;;-3.20;99.90;;;;;;5033622;28;20473;-71
2021/12/08 13:24:34;;;;;;;5.67;1.87;;;-3.20;99.90;;;;;;5034121;28;20184;-75
2021/12/08 13:27:06;;;;;;;1.90;1.80;;;-3.40;99.90;;;;;;5033613;28;20834;-69
2021/12/08 13:29:35;;;;;;;8.33;2.23;;;-4.20;99.90;;;;;;5013776;28;20471;-70
2021/12/08 13:32:13;;;;;;;5.67;2.57;;;-3.10;99.90;;;;;;5030997;28;20445;-75
2021/12/08 13:34:45;;;;;;;4.77;1.90;;;-4.10;99.90;;;;;;5033836;28;20490;-70
2021/12/08 13:37:15;;;;;;;2.20;1.47;;;-3.40;99.90;;;;;;5032432;28;20458;-70
2021/12/08 13:39:44;;;;;;;3.23;1.40;;;-2.30;99.90;;;;;;5033087;28;20496;-71
2021/12/08 13:42:10;;;;;;;4.67;1.70;;;-2.70;99.90;;;;;;5033427;28;20410;-71
2021/12/08 13:44:49;;;;;;;5.83;1.73;;;-3.90;99.90;;;;;;5034046;28;20410;-71
2021/12/08 13:47:26;;;;;;;4.40;1.60;;;-3.70;99.90;;;;;;5032311;28;20241;-70
2021/12/08 13:50:13;;;;;;;3.73;1.70;;;-3.50;99.90;;;;;;5033441;28;21133;-70
2021/12/08 13:52:54;;;;;;;3.33;1.53;;;-3.30;99.90;;;;;;5037085;28;20887;-72
2021/12/08 13:55:23;;;;;;;2.87;1.83;;;-3.20;99.90;;;;;;5037495;28;20444;-69
2021/12/08 13:57:53;;;;;;;7.67;3.30;;;-3.00;99.90;;;;;;5036655;28;20410;-70
2021/12/08 14:00:41;;;;;;;3.67;1.70;;;-2.70;99.90;;;;;;5036819;28;20398;-69
2021/12/08 14:03:37;;;;;;;7.13;3.20;;;-2.60;99.90;;;;;;5037435;28;20196;-70
2021/12/08 14:06:04;;;;;;;4.67;1.93;;;-3.20;99.90;;;;;;5033512;28;20186;-70